createdAt,value
2018-04-30T00:00:00.575Z,936.86
2018-04-30T00:01:00.670Z,936.85
2018-04-30T00:02:00.602Z,936.84
2018-04-30T00:03:00.606Z,936.85
2018-04-30T00:04:00.713Z,936.84
2018-04-30T00:05:00.674Z,936.88
2018-04-30T00:06:00.630Z,936.88
2018-04-30T00:07:00.649Z,936.90
2018-04-30T00:08:00.668Z,936.88
2018-04-30T00:09:00.784Z,936.94
2018-04-30T00:10:00.740Z,936.92
2018-04-30T00:11:00.718Z,936.95
2018-04-30T00:12:00.757Z,936.93
2018-04-30T00:13:00.770Z,936.92
2018-04-30T00:14:00.875Z,936.94
2018-04-30T00:15:00.811Z,936.96
2018-04-30T00:16:00.799Z,936.97
2018-04-30T00:17:00.836Z,936.99
2018-04-30T00:18:00.827Z,937.03
2018-04-30T00:19:00.948Z,937.06
2018-04-30T00:20:00.882Z,937.05
2018-04-30T00:21:00.890Z,937.05
2018-04-30T00:22:00.904Z,937.07
2018-04-30T00:23:00.922Z,937.05
2018-04-30T00:24:01.040Z,937.07
2018-04-30T00:25:00.942Z,937.04
2018-04-30T00:26:00.986Z,937.06
2018-04-30T00:27:00.983Z,937.05
2018-04-30T00:28:00.994Z,937.05
2018-04-30T00:29:01.130Z,937.03
2018-04-30T00:30:01.040Z,937.06
2018-04-30T00:31:01.167Z,936.98
2018-04-30T00:32:01.054Z,937.00
2018-04-30T00:33:01.067Z,936.99
2018-04-30T00:34:01.189Z,937.00
2018-04-30T00:35:01.214Z,937.05
2018-04-30T00:36:01.115Z,937.00
2018-04-30T00:37:01.131Z,937.02
2018-04-30T00:38:01.176Z,937.03
2018-04-30T00:39:01.261Z,936.98
2018-04-30T00:40:01.207Z,936.99
2018-04-30T00:41:01.227Z,936.99
2018-04-30T00:42:01.237Z,936.95
2018-04-30T00:43:01.264Z,936.94
2018-04-30T00:44:01.342Z,936.95
2018-04-30T00:45:01.387Z,936.88
2018-04-30T00:46:01.300Z,936.88
2018-04-30T00:47:01.295Z,936.91
2018-04-30T00:48:01.316Z,936.88
2018-04-30T00:49:01.426Z,936.86
2018-04-30T00:50:01.373Z,936.87
2018-04-30T00:51:01.383Z,936.86
2018-04-30T00:52:01.374Z,936.86
2018-04-30T00:53:01.417Z,936.85
2018-04-30T00:54:01.538Z,936.85
2018-04-30T00:55:01.451Z,936.88
2018-04-30T00:56:01.445Z,936.85
2018-04-30T00:57:01.450Z,936.87
2018-04-30T00:58:01.470Z,936.89
2018-04-30T00:59:01.615Z,936.86
2018-04-30T01:00:01.527Z,936.88
2018-04-30T01:01:01.542Z,936.85
2018-04-30T01:02:01.529Z,936.84
2018-04-30T01:03:01.549Z,936.81
2018-04-30T01:04:01.696Z,936.83
2018-04-30T01:05:01.628Z,936.82
2018-04-30T01:06:01.596Z,936.83
2018-04-30T01:07:01.643Z,936.88
2018-04-30T01:08:01.655Z,936.84
2018-04-30T01:09:01.742Z,936.86
2018-04-30T01:10:01.682Z,936.87
2018-04-30T01:11:01.706Z,936.84
2018-04-30T01:12:01.687Z,936.82
2018-04-30T01:13:01.717Z,936.82
2018-04-30T01:14:01.824Z,936.77
2018-04-30T01:15:01.754Z,936.80
2018-04-30T01:16:01.781Z,936.75
2018-04-30T01:17:01.801Z,936.77
2018-04-30T01:18:01.810Z,936.77
2018-04-30T01:19:01.926Z,936.74
2018-04-30T01:20:01.823Z,936.73
2018-04-30T01:21:01.857Z,936.72
2018-04-30T01:22:01.876Z,936.72
2018-04-30T01:23:01.877Z,936.74
2018-04-30T01:24:02.010Z,936.75
2018-04-30T01:25:01.925Z,936.74
2018-04-30T01:26:01.943Z,936.73
2018-04-30T01:27:01.932Z,936.71
2018-04-30T01:28:01.944Z,936.68
2018-04-30T01:29:02.102Z,936.66
2018-04-30T01:30:02.042Z,936.68
2018-04-30T01:31:02.018Z,936.69
2018-04-30T01:32:02.008Z,936.69
2018-04-30T01:33:02.027Z,936.74
2018-04-30T01:34:02.140Z,936.72
2018-04-30T01:35:02.098Z,936.73
2018-04-30T01:36:02.068Z,936.73
2018-04-30T01:37:02.111Z,936.77
2018-04-30T01:38:02.103Z,936.73
2018-04-30T01:39:02.128Z,936.75
2018-04-30T01:40:02.243Z,936.76
2018-04-30T01:41:02.154Z,936.74
2018-04-30T01:42:02.188Z,936.79
2018-04-30T01:43:02.188Z,936.76
2018-04-30T01:44:02.198Z,936.73
2018-04-30T01:45:02.335Z,936.75
2018-04-30T01:46:02.225Z,936.79
2018-04-30T01:47:02.240Z,936.71
2018-04-30T01:48:02.259Z,936.70
2018-04-30T01:49:02.268Z,936.68
2018-04-30T01:50:02.395Z,936.66
2018-04-30T01:51:02.333Z,936.65
2018-04-30T01:52:02.329Z,936.65
2018-04-30T01:53:02.340Z,936.65
2018-04-30T01:54:02.353Z,936.68
2018-04-30T01:55:02.470Z,936.67
2018-04-30T01:56:02.394Z,936.70
2018-04-30T01:57:02.426Z,936.69
2018-04-30T01:58:02.439Z,936.68
2018-04-30T01:59:02.461Z,936.73
2018-04-30T02:00:02.548Z,936.73
2018-04-30T02:01:02.459Z,936.74
2018-04-30T02:02:02.476Z,936.75
2018-04-30T02:03:02.516Z,936.74
2018-04-30T02:04:02.534Z,936.71
2018-04-30T02:05:02.621Z,936.72
2018-04-30T02:06:02.540Z,936.70
2018-04-30T02:07:02.581Z,936.72
2018-04-30T02:08:02.569Z,936.76
2018-04-30T02:09:02.589Z,936.72
2018-04-30T02:10:02.779Z,936.79
2018-04-30T02:11:02.643Z,936.81
2018-04-30T02:12:02.646Z,936.78
2018-04-30T02:13:02.657Z,936.77
2018-04-30T02:14:02.690Z,936.81
2018-04-30T02:15:02.791Z,936.79
2018-04-30T02:16:02.697Z,936.82
2018-04-30T02:17:02.723Z,936.78
2018-04-30T02:18:02.725Z,936.78
2018-04-30T02:19:02.740Z,936.80
2018-04-30T02:20:02.882Z,936.82
2018-04-30T02:21:02.779Z,936.79
2018-04-30T02:22:02.824Z,936.76
2018-04-30T02:23:02.831Z,936.76
2018-04-30T02:24:02.815Z,936.81
2018-04-30T02:25:02.942Z,936.82
2018-04-30T02:26:02.865Z,936.81
2018-04-30T02:27:02.873Z,936.84
2018-04-30T02:28:02.875Z,936.82
2018-04-30T02:29:02.888Z,936.79
2018-04-30T02:30:03.016Z,936.79
2018-04-30T02:31:02.938Z,936.77
2018-04-30T02:32:02.947Z,936.76
2018-04-30T02:33:02.955Z,936.74
2018-04-30T02:34:02.975Z,936.76
2018-04-30T02:35:03.163Z,936.70
2018-04-30T02:36:03.030Z,936.74
2018-04-30T02:37:03.019Z,936.72
2018-04-30T02:38:03.046Z,936.72
2018-04-30T02:39:03.073Z,936.68
2018-04-30T02:40:03.094Z,936.70
2018-04-30T02:41:03.230Z,936.71
2018-04-30T02:42:03.118Z,936.76
2018-04-30T02:43:03.112Z,936.70
2018-04-30T02:44:03.139Z,936.72
2018-04-30T02:45:03.171Z,936.72
2018-04-30T02:46:03.320Z,936.72
2018-04-30T02:47:03.184Z,936.69
2018-04-30T02:48:03.197Z,936.70
2018-04-30T02:49:03.233Z,936.65
2018-04-30T02:50:03.248Z,936.63
2018-04-30T02:51:03.346Z,936.60
2018-04-30T02:52:03.277Z,936.56
2018-04-30T02:53:03.261Z,936.57
2018-04-30T02:54:03.281Z,936.57
2018-04-30T02:55:03.316Z,936.57
2018-04-30T02:56:03.411Z,936.55
2018-04-30T02:57:03.336Z,936.57
2018-04-30T02:58:03.342Z,936.54
2018-04-30T02:59:03.386Z,936.52
2018-04-30T03:00:03.395Z,936.53
2018-04-30T03:01:03.485Z,936.52
2018-04-30T03:02:03.431Z,936.48
2018-04-30T03:03:03.447Z,936.47
2018-04-30T03:04:03.444Z,936.41
2018-04-30T03:05:03.458Z,936.44
2018-04-30T03:06:03.566Z,936.46
2018-04-30T03:07:03.477Z,936.46
2018-04-30T03:08:03.530Z,936.48
2018-04-30T03:09:03.510Z,936.46
2018-04-30T03:10:03.545Z,936.50
2018-04-30T03:11:03.671Z,936.46
2018-04-30T03:12:03.562Z,936.49
2018-04-30T03:13:03.594Z,936.49
2018-04-30T03:14:03.581Z,936.47
2018-04-30T03:15:03.625Z,936.48
2018-04-30T03:16:03.711Z,936.50
2018-04-30T03:17:03.640Z,936.48
2018-04-30T03:18:03.670Z,936.48
2018-04-30T03:19:03.658Z,936.48
2018-04-30T03:20:03.675Z,936.44
2018-04-30T03:21:03.814Z,936.44
2018-04-30T03:22:03.728Z,936.45
2018-04-30T03:23:03.718Z,936.47
2018-04-30T03:24:03.760Z,936.46
2018-04-30T03:25:03.750Z,936.43
2018-04-30T03:26:03.891Z,936.42
2018-04-30T03:27:03.781Z,936.45
2018-04-30T03:28:03.788Z,936.48
2018-04-30T03:29:03.821Z,936.42
2018-04-30T03:30:03.827Z,936.39
2018-04-30T03:31:03.970Z,936.41
2018-04-30T03:32:03.853Z,936.38
2018-04-30T03:33:03.871Z,936.36
2018-04-30T03:34:03.909Z,936.35
2018-04-30T03:35:03.915Z,936.35
2018-04-30T03:36:04.041Z,936.31
2018-04-30T03:37:03.931Z,936.35
2018-04-30T03:38:03.944Z,936.33
2018-04-30T03:39:03.965Z,936.36
2018-04-30T03:40:03.973Z,936.39
2018-04-30T03:41:04.152Z,936.39
2018-04-30T03:42:04.025Z,936.38
2018-04-30T03:43:04.035Z,936.39
2018-04-30T03:44:04.064Z,936.41
2018-04-30T03:45:04.052Z,936.39
2018-04-30T03:46:04.093Z,936.35
2018-04-30T03:47:04.188Z,936.36
2018-04-30T03:48:04.098Z,936.35
2018-04-30T03:49:04.141Z,936.35
2018-04-30T03:50:04.195Z,936.31
2018-04-30T03:51:04.185Z,936.32
2018-04-30T03:52:04.270Z,936.33
2018-04-30T03:53:04.199Z,936.33
2018-04-30T03:54:04.213Z,936.32
2018-04-30T03:55:04.204Z,936.30
2018-04-30T03:56:04.220Z,936.30
2018-04-30T03:57:04.343Z,936.26
2018-04-30T03:58:04.246Z,936.26
2018-04-30T03:59:04.265Z,936.26
2018-04-30T04:00:04.301Z,936.26
2018-04-30T04:01:04.319Z,936.26
2018-04-30T04:02:04.406Z,936.25
2018-04-30T04:03:04.398Z,936.25
2018-04-30T04:04:04.339Z,936.24
2018-04-30T04:05:04.381Z,936.21
2018-04-30T04:06:04.391Z,936.20
2018-04-30T04:07:04.513Z,936.19
2018-04-30T04:08:04.398Z,936.19
2018-04-30T04:09:04.422Z,936.18
2018-04-30T04:10:04.458Z,936.22
2018-04-30T04:11:04.450Z,936.19
2018-04-30T04:12:04.555Z,936.18
2018-04-30T04:13:04.477Z,936.19
2018-04-30T04:14:04.485Z,936.16
2018-04-30T04:15:04.529Z,936.12
2018-04-30T04:16:04.527Z,936.12
2018-04-30T04:17:04.626Z,936.09
2018-04-30T04:18:04.551Z,936.05
2018-04-30T04:19:04.574Z,936.03
2018-04-30T04:20:04.577Z,936.01
2018-04-30T04:21:04.632Z,936.05
2018-04-30T04:22:04.738Z,936.07
2018-04-30T04:23:04.645Z,936.02
2018-04-30T04:24:04.637Z,936.06
2018-04-30T04:25:04.651Z,936.09
2018-04-30T04:26:04.661Z,936.04
2018-04-30T04:27:04.790Z,936.03
2018-04-30T04:28:04.700Z,936.00
2018-04-30T04:29:04.737Z,935.98
2018-04-30T04:30:04.749Z,936.01
2018-04-30T04:31:04.753Z,936.00
2018-04-30T04:32:04.856Z,936.04
2018-04-30T04:33:04.770Z,936.01
2018-04-30T04:34:04.783Z,936.03
2018-04-30T04:35:04.797Z,936.01
2018-04-30T04:36:04.812Z,936.04
2018-04-30T04:37:04.975Z,936.00
2018-04-30T04:38:04.842Z,935.99
2018-04-30T04:39:04.882Z,936.01
2018-04-30T04:40:04.873Z,936.00
2018-04-30T04:41:04.912Z,935.98
2018-04-30T04:42:05.028Z,935.99
2018-04-30T04:43:04.916Z,935.98
2018-04-30T04:44:04.954Z,935.98
2018-04-30T04:45:04.957Z,935.95
2018-04-30T04:46:04.991Z,935.96
2018-04-30T04:47:05.101Z,935.96
2018-04-30T04:48:04.991Z,935.92
2018-04-30T04:49:05.027Z,935.92
2018-04-30T04:50:05.037Z,935.93
2018-04-30T04:51:05.060Z,935.96
2018-04-30T04:52:05.045Z,935.91
2018-04-30T04:53:05.156Z,935.92
2018-04-30T04:54:05.075Z,935.92
2018-04-30T04:55:05.102Z,935.92
2018-04-30T04:56:05.111Z,935.94
2018-04-30T04:57:05.137Z,935.93
2018-04-30T04:58:05.233Z,935.95
2018-04-30T04:59:05.148Z,935.94
2018-04-30T05:00:05.173Z,935.95
2018-04-30T05:01:05.179Z,935.97
2018-04-30T05:02:05.203Z,936.01
2018-04-30T05:03:05.306Z,935.95
2018-04-30T05:04:05.232Z,935.95
2018-04-30T05:05:05.247Z,935.96
2018-04-30T05:06:05.286Z,935.94
2018-04-30T05:07:05.267Z,935.92
2018-04-30T05:08:05.406Z,935.94
2018-04-30T05:09:05.325Z,935.93
2018-04-30T05:10:05.310Z,935.91
2018-04-30T05:11:05.325Z,935.90
2018-04-30T05:12:05.332Z,935.99
2018-04-30T05:13:05.512Z,936.04
2018-04-30T05:14:05.398Z,936.02
2018-04-30T05:15:05.459Z,936.02
2018-04-30T05:16:05.390Z,936.03
2018-04-30T05:17:05.408Z,936.04
2018-04-30T05:18:05.526Z,936.05
2018-04-30T05:19:05.463Z,936.04
2018-04-30T05:20:05.486Z,936.02
2018-04-30T05:21:05.468Z,935.99
2018-04-30T05:22:05.484Z,936.01
2018-04-30T05:23:05.595Z,936.03
2018-04-30T05:24:05.535Z,936.01
2018-04-30T05:25:05.523Z,936.01
2018-04-30T05:26:05.543Z,936.01
2018-04-30T05:27:05.566Z,935.99
2018-04-30T05:28:05.668Z,936.01
2018-04-30T05:29:05.595Z,936.02
2018-04-30T05:30:05.601Z,936.00
2018-04-30T05:31:05.620Z,936.01
2018-04-30T05:32:05.629Z,936.03
2018-04-30T05:33:05.773Z,936.05
2018-04-30T05:34:05.672Z,936.03
2018-04-30T05:35:05.678Z,936.03
2018-04-30T05:36:05.685Z,936.02
2018-04-30T05:37:05.701Z,936.00
2018-04-30T05:38:05.813Z,935.97
2018-04-30T05:39:05.736Z,935.94
2018-04-30T05:40:05.771Z,935.97
2018-04-30T05:41:05.757Z,935.93
2018-04-30T05:42:05.787Z,935.94
2018-04-30T05:43:05.898Z,935.99
2018-04-30T05:44:05.802Z,935.96
2018-04-30T05:45:05.815Z,935.97
2018-04-30T05:46:05.841Z,935.96
2018-04-30T05:47:05.864Z,935.93
2018-04-30T05:48:05.996Z,935.94
2018-04-30T05:49:05.871Z,935.93
2018-04-30T05:50:05.916Z,935.90
2018-04-30T05:51:05.926Z,935.89
2018-04-30T05:52:05.918Z,935.90
2018-04-30T05:53:06.037Z,935.86
2018-04-30T05:54:05.972Z,935.92
2018-04-30T05:55:05.966Z,935.89
2018-04-30T05:56:05.977Z,935.90
2018-04-30T05:57:05.988Z,935.90
2018-04-30T05:58:06.134Z,935.89
2018-04-30T05:59:06.041Z,935.88
2018-04-30T06:00:06.049Z,935.89
2018-04-30T06:01:06.044Z,935.90
2018-04-30T06:02:06.059Z,935.89
2018-04-30T06:03:06.249Z,935.88
2018-04-30T06:04:06.097Z,935.85
2018-04-30T06:05:06.132Z,935.88
2018-04-30T06:06:06.131Z,935.88
2018-04-30T06:07:06.136Z,935.88
2018-04-30T06:08:06.244Z,935.89
2018-04-30T06:09:06.160Z,935.89
2018-04-30T06:10:06.172Z,935.87
2018-04-30T06:11:06.187Z,935.85
2018-04-30T06:12:06.288Z,935.85
2018-04-30T06:13:06.352Z,935.87
2018-04-30T06:14:06.229Z,935.89
2018-04-30T06:15:06.299Z,935.86
2018-04-30T06:16:06.288Z,935.82
2018-04-30T06:17:06.288Z,935.83
2018-04-30T06:18:06.414Z,935.81
2018-04-30T06:19:06.315Z,935.82
2018-04-30T06:20:06.315Z,935.84
2018-04-30T06:21:06.367Z,935.78
2018-04-30T06:22:06.375Z,935.78
2018-04-30T06:23:06.529Z,935.82
2018-04-30T06:24:06.380Z,935.81
2018-04-30T06:25:06.389Z,935.83
2018-04-30T06:26:06.424Z,935.79
2018-04-30T06:27:06.413Z,935.82
2018-04-30T06:28:06.524Z,935.82
2018-04-30T06:29:06.459Z,935.81
2018-04-30T06:30:06.482Z,935.82
2018-04-30T06:31:06.501Z,935.81
2018-04-30T06:32:06.516Z,935.79
2018-04-30T06:33:06.628Z,935.77
2018-04-30T06:34:06.546Z,935.80
2018-04-30T06:35:06.539Z,935.78
2018-04-30T06:36:06.548Z,935.80
2018-04-30T06:37:06.553Z,935.80
2018-04-30T06:38:06.668Z,935.74
2018-04-30T06:39:06.602Z,935.75
2018-04-30T06:40:06.620Z,935.76
2018-04-30T06:41:06.617Z,935.69
2018-04-30T06:42:06.653Z,935.70
2018-04-30T06:43:06.751Z,935.68
2018-04-30T06:44:06.679Z,935.68
2018-04-30T06:45:06.669Z,935.67
2018-04-30T06:46:06.691Z,935.67
2018-04-30T06:47:06.720Z,935.68
2018-04-30T06:48:06.812Z,935.67
2018-04-30T06:49:06.722Z,935.65
2018-04-30T06:50:06.765Z,935.65
2018-04-30T06:51:06.748Z,935.62
2018-04-30T06:52:06.779Z,935.59
2018-04-30T06:53:06.878Z,935.64
2018-04-30T06:54:06.802Z,935.59
2018-04-30T06:55:06.817Z,935.60
2018-04-30T06:56:06.835Z,935.63
2018-04-30T06:57:06.838Z,935.61
2018-04-30T06:58:06.949Z,935.63
2018-04-30T06:59:06.867Z,935.62
2018-04-30T07:00:06.878Z,935.64
2018-04-30T07:01:06.921Z,935.63
2018-04-30T07:02:06.905Z,935.64
2018-04-30T07:03:07.018Z,935.66
2018-04-30T07:04:06.961Z,935.63
2018-04-30T07:05:06.947Z,935.65
2018-04-30T07:06:06.990Z,935.65
2018-04-30T07:07:06.980Z,935.66
2018-04-30T07:08:06.988Z,935.61
2018-04-30T07:09:07.202Z,935.64
2018-04-30T07:10:07.024Z,935.62
2018-04-30T07:11:07.039Z,935.59
2018-04-30T07:12:07.048Z,935.60
2018-04-30T07:13:07.060Z,935.58
2018-04-30T07:14:07.202Z,935.59
2018-04-30T07:15:07.086Z,935.57
2018-04-30T07:16:07.126Z,935.58
2018-04-30T07:17:07.115Z,935.55
2018-04-30T07:18:07.129Z,935.56
2018-04-30T07:19:07.272Z,935.54
2018-04-30T07:20:07.227Z,935.50
2018-04-30T07:21:07.201Z,935.56
2018-04-30T07:22:07.189Z,935.52
2018-04-30T07:23:07.199Z,935.56
2018-04-30T07:24:07.340Z,935.51
2018-04-30T07:25:07.229Z,935.56
2018-04-30T07:26:07.244Z,935.56
2018-04-30T07:27:07.280Z,935.54
2018-04-30T07:28:07.264Z,935.53
2018-04-30T07:29:07.418Z,935.53
2018-04-30T07:30:07.298Z,935.52
2018-04-30T07:31:07.310Z,935.55
2018-04-30T07:32:07.332Z,935.50
2018-04-30T07:33:07.391Z,935.52
2018-04-30T07:34:07.481Z,935.48
2018-04-30T07:35:07.424Z,935.47
2018-04-30T07:36:07.442Z,935.51
2018-04-30T07:37:07.454Z,935.45
2018-04-30T07:38:07.470Z,935.45
2018-04-30T07:39:07.638Z,935.45
2018-04-30T07:40:07.495Z,935.43
2018-04-30T07:41:07.446Z,935.44
2018-04-30T07:42:07.492Z,935.46
2018-04-30T07:43:07.492Z,935.46
2018-04-30T07:44:07.591Z,935.48
2018-04-30T07:45:07.509Z,935.50
2018-04-30T07:46:07.527Z,935.49
2018-04-30T07:47:07.531Z,935.48
2018-04-30T07:48:07.545Z,935.47
2018-04-30T07:49:07.719Z,935.45
2018-04-30T07:50:07.574Z,935.52
2018-04-30T07:51:07.593Z,935.49
2018-04-30T07:52:07.635Z,935.49
2018-04-30T07:53:07.645Z,935.53
2018-04-30T07:54:07.755Z,935.57
2018-04-30T07:55:07.656Z,935.50
2018-04-30T07:56:07.673Z,935.57
2018-04-30T07:57:07.699Z,935.55
2018-04-30T07:58:07.685Z,935.51
2018-04-30T07:59:07.829Z,935.52
2018-04-30T08:00:07.715Z,935.50
2018-04-30T08:01:07.728Z,935.53
2018-04-30T08:02:07.743Z,935.52
2018-04-30T08:03:07.821Z,935.55
2018-04-30T08:04:07.898Z,935.56
2018-04-30T08:05:07.791Z,935.56
2018-04-30T08:06:07.829Z,935.61
2018-04-30T08:07:07.835Z,935.55
2018-04-30T08:08:07.829Z,935.58
2018-04-30T08:09:07.985Z,935.60
2018-04-30T08:10:07.853Z,935.62
2018-04-30T08:11:07.863Z,935.62
2018-04-30T08:12:07.879Z,935.64
2018-04-30T08:13:07.894Z,935.64
2018-04-30T08:14:08.007Z,935.67
2018-04-30T08:15:07.919Z,935.65
2018-04-30T08:16:07.932Z,935.69
2018-04-30T08:17:07.950Z,935.70
2018-04-30T08:18:07.973Z,935.71
2018-04-30T08:19:07.978Z,935.69
2018-04-30T08:20:08.095Z,935.72
2018-04-30T08:21:08.040Z,935.70
2018-04-30T08:22:08.041Z,935.68
2018-04-30T08:23:08.037Z,935.66
2018-04-30T08:24:08.068Z,935.65
2018-04-30T08:25:08.185Z,935.66
2018-04-30T08:26:08.069Z,935.66
2018-04-30T08:27:08.080Z,935.67
2018-04-30T08:28:08.101Z,935.65
2018-04-30T08:29:08.115Z,935.62
2018-04-30T08:30:08.251Z,935.63
2018-04-30T08:31:08.141Z,935.62
2018-04-30T08:32:08.184Z,935.62
2018-04-30T08:33:08.170Z,935.62
2018-04-30T08:34:08.196Z,935.63
2018-04-30T08:35:08.298Z,935.64
2018-04-30T08:36:08.212Z,935.63
2018-04-30T08:37:08.224Z,935.66
2018-04-30T08:38:08.260Z,935.72
2018-04-30T08:39:08.275Z,935.71
2018-04-30T08:40:08.387Z,935.72
2018-04-30T08:41:08.279Z,935.74
2018-04-30T08:42:08.292Z,935.77
2018-04-30T08:43:08.332Z,935.77
2018-04-30T08:44:08.320Z,935.78
2018-04-30T08:45:08.488Z,935.78
2018-04-30T08:46:08.348Z,935.81
2018-04-30T08:47:08.399Z,935.80
2018-04-30T08:48:08.375Z,935.78
2018-04-30T08:49:08.414Z,935.85
2018-04-30T08:50:08.516Z,935.87
2018-04-30T08:51:08.422Z,935.89
2018-04-30T08:52:08.506Z,935.94
2018-04-30T08:53:08.467Z,935.93
2018-04-30T08:54:08.454Z,935.96
2018-04-30T08:55:08.571Z,935.99
2018-04-30T08:56:08.484Z,935.99
2018-04-30T08:57:08.496Z,935.95
2018-04-30T08:58:08.503Z,935.99
2018-04-30T08:59:08.525Z,935.97
2018-04-30T09:00:08.667Z,935.97
2018-04-30T09:01:08.558Z,936.00
2018-04-30T09:02:08.589Z,935.98
2018-04-30T09:03:08.583Z,936.01
2018-04-30T09:04:08.606Z,936.00
2018-04-30T09:05:08.713Z,936.03
2018-04-30T09:06:08.645Z,936.01
2018-04-30T09:07:08.633Z,935.98
2018-04-30T09:08:08.660Z,936.01
2018-04-30T09:09:08.667Z,936.03
2018-04-30T09:10:08.787Z,936.11
2018-04-30T09:11:08.687Z,936.10
2018-04-30T09:12:08.729Z,936.11
2018-04-30T09:13:08.743Z,936.13
2018-04-30T09:14:08.755Z,936.16
2018-04-30T09:15:08.850Z,936.18
2018-04-30T09:16:08.763Z,936.20
2018-04-30T09:17:08.798Z,936.21
2018-04-30T09:18:08.782Z,936.23
2018-04-30T09:19:08.825Z,936.25
2018-04-30T09:20:08.940Z,936.27
2018-04-30T09:21:08.832Z,936.26
2018-04-30T09:22:08.867Z,936.27
2018-04-30T09:23:08.853Z,936.28
2018-04-30T09:24:08.869Z,936.31
2018-04-30T09:25:08.983Z,936.31
2018-04-30T09:26:08.894Z,936.33
2018-04-30T09:27:08.911Z,936.34
2018-04-30T09:28:08.926Z,936.33
2018-04-30T09:29:09.011Z,936.36
2018-04-30T09:30:09.051Z,936.42
2018-04-30T09:31:08.962Z,936.41
2018-04-30T09:32:08.978Z,936.42
2018-04-30T09:33:08.989Z,936.46
2018-04-30T09:34:09.035Z,936.43
2018-04-30T09:35:09.120Z,936.43
2018-04-30T09:36:09.030Z,936.48
2018-04-30T09:37:09.056Z,936.49
2018-04-30T09:38:09.069Z,936.50
2018-04-30T09:39:09.103Z,936.55
2018-04-30T09:40:09.189Z,936.57
2018-04-30T09:41:09.131Z,936.58
2018-04-30T09:42:09.111Z,936.60
2018-04-30T09:43:09.155Z,936.62
2018-04-30T09:44:09.148Z,936.56
2018-04-30T09:45:09.287Z,936.58
2018-04-30T09:46:09.198Z,936.60
2018-04-30T09:47:09.194Z,936.59
2018-04-30T09:48:09.201Z,936.61
2018-04-30T09:49:09.295Z,936.66
2018-04-30T09:50:09.349Z,936.62
2018-04-30T09:51:09.264Z,936.64
2018-04-30T09:52:09.258Z,936.66
2018-04-30T09:53:09.269Z,936.69
2018-04-30T09:54:09.307Z,936.69
2018-04-30T09:55:09.421Z,936.72
2018-04-30T09:56:09.336Z,936.72
2018-04-30T09:57:09.320Z,936.75
2018-04-30T09:58:09.333Z,936.74
2018-04-30T09:59:09.373Z,936.76
2018-04-30T10:00:09.462Z,936.77
2018-04-30T10:01:09.404Z,936.78
2018-04-30T10:02:09.387Z,936.81
2018-04-30T10:03:09.434Z,936.76
2018-04-30T10:04:09.427Z,936.79
2018-04-30T10:05:09.542Z,936.78
2018-04-30T10:06:09.470Z,936.79
2018-04-30T10:07:09.467Z,936.77
2018-04-30T10:08:09.476Z,936.79
2018-04-30T10:09:09.520Z,936.83
2018-04-30T10:10:09.609Z,936.81
2018-04-30T10:11:09.514Z,936.86
2018-04-30T10:12:09.567Z,936.86
2018-04-30T10:13:09.572Z,936.89
2018-04-30T10:14:09.578Z,936.87
2018-04-30T10:15:09.703Z,936.89
2018-04-30T10:16:09.612Z,936.88
2018-04-30T10:17:09.601Z,936.93
2018-04-30T10:18:09.627Z,936.95
2018-04-30T10:19:09.639Z,936.95
2018-04-30T10:20:09.776Z,936.93
2018-04-30T10:21:09.661Z,936.94
2018-04-30T10:22:09.707Z,936.97
2018-04-30T10:23:09.714Z,936.98
2018-04-30T10:24:09.701Z,936.99
2018-04-30T10:25:09.846Z,937.00
2018-04-30T10:26:09.737Z,937.03
2018-04-30T10:27:09.778Z,937.05
2018-04-30T10:28:09.761Z,937.11
2018-04-30T10:29:09.818Z,937.17
2018-04-30T10:30:09.897Z,937.17
2018-04-30T10:31:09.832Z,937.18
2018-04-30T10:32:09.821Z,937.16
2018-04-30T10:33:09.842Z,937.15
2018-04-30T10:34:09.875Z,937.16
2018-04-30T10:35:09.960Z,937.18
2018-04-30T10:36:09.894Z,937.18
2018-04-30T10:37:09.892Z,937.19
2018-04-30T10:38:09.908Z,937.17
2018-04-30T10:39:09.934Z,937.19
2018-04-30T10:40:10.090Z,937.20
2018-04-30T10:41:09.986Z,937.20
2018-04-30T10:42:09.998Z,937.17
2018-04-30T10:43:09.982Z,937.22
2018-04-30T10:44:10.016Z,937.24
2018-04-30T10:45:10.116Z,937.20
2018-04-30T10:46:10.032Z,937.24
2018-04-30T10:47:10.066Z,937.22
2018-04-30T10:48:10.057Z,937.24
2018-04-30T10:49:10.082Z,937.27
2018-04-30T10:50:10.194Z,937.26
2018-04-30T10:51:10.131Z,937.30
2018-04-30T10:52:10.124Z,937.32
2018-04-30T10:53:10.141Z,937.29
2018-04-30T10:54:10.152Z,937.32
2018-04-30T10:55:10.279Z,937.33
2018-04-30T10:56:10.210Z,937.32
2018-04-30T10:57:10.235Z,937.32
2018-04-30T10:58:10.219Z,937.28
2018-04-30T10:59:10.285Z,937.34
2018-04-30T11:00:10.358Z,937.32
2018-04-30T11:01:10.282Z,937.37
2018-04-30T11:02:10.284Z,937.40
2018-04-30T11:03:10.299Z,937.41
2018-04-30T11:04:10.320Z,937.46
2018-04-30T11:05:10.433Z,937.49
2018-04-30T11:06:10.362Z,937.50
2018-04-30T11:07:10.372Z,937.47
2018-04-30T11:08:10.410Z,937.49
2018-04-30T11:09:10.408Z,937.50
2018-04-30T11:10:10.531Z,937.49
2018-04-30T11:11:10.438Z,937.50
2018-04-30T11:12:10.480Z,937.52
2018-04-30T11:13:10.493Z,937.52
2018-04-30T11:14:10.486Z,937.56
2018-04-30T11:15:10.607Z,937.55
2018-04-30T11:16:10.519Z,937.54
2018-04-30T11:17:10.539Z,937.56
2018-04-30T11:18:10.556Z,937.58
2018-04-30T11:19:10.574Z,937.62
2018-04-30T11:20:10.714Z,937.60
2018-04-30T11:21:10.611Z,937.63
2018-04-30T11:22:10.626Z,937.63
2018-04-30T11:23:10.668Z,937.67
2018-04-30T11:24:10.659Z,937.70
2018-04-30T11:25:10.805Z,937.78
2018-04-30T11:26:10.719Z,937.76
2018-04-30T11:27:10.707Z,937.79
2018-04-30T11:28:10.725Z,937.79
2018-04-30T11:29:10.774Z,937.76
2018-04-30T11:30:10.861Z,937.84
2018-04-30T11:31:10.788Z,937.85
2018-04-30T11:32:10.796Z,937.87
2018-04-30T11:33:10.810Z,937.92
2018-04-30T11:34:10.909Z,937.90
2018-04-30T11:35:10.977Z,937.91
2018-04-30T11:36:10.867Z,937.91
2018-04-30T11:37:10.892Z,937.93
2018-04-30T11:38:10.907Z,937.94
2018-04-30T11:39:10.932Z,937.99
2018-04-30T11:40:10.936Z,938.04
2018-04-30T11:41:11.056Z,938.01
2018-04-30T11:42:10.984Z,938.00
2018-04-30T11:43:10.994Z,938.03
2018-04-30T11:44:11.037Z,938.04
2018-04-30T11:45:11.030Z,938.02
2018-04-30T11:46:11.172Z,938.00
2018-04-30T11:47:11.100Z,938.02
2018-04-30T11:48:11.077Z,938.05
2018-04-30T11:49:11.128Z,938.06
2018-04-30T11:50:11.126Z,938.08
2018-04-30T11:51:11.239Z,938.06
2018-04-30T11:52:11.158Z,938.06
2018-04-30T11:53:11.187Z,938.04
2018-04-30T11:54:11.197Z,938.05
2018-04-30T11:55:11.228Z,938.09
2018-04-30T11:56:11.356Z,938.08
2018-04-30T11:57:11.255Z,938.08
2018-04-30T11:58:11.281Z,938.08
2018-04-30T11:59:11.302Z,938.06
2018-04-30T12:00:11.308Z,938.08
2018-04-30T12:01:11.431Z,938.07
2018-04-30T12:02:11.349Z,938.05
2018-04-30T12:03:11.371Z,938.04
2018-04-30T12:04:11.416Z,938.10
2018-04-30T12:05:11.409Z,938.10
2018-04-30T12:06:11.529Z,938.12
2018-04-30T12:07:11.445Z,938.16
2018-04-30T12:08:11.492Z,938.17
2018-04-30T12:09:11.485Z,938.20
2018-04-30T12:10:11.511Z,938.19
2018-04-30T12:11:11.655Z,938.17
2018-04-30T12:12:11.550Z,938.19
2018-04-30T12:13:11.576Z,938.22
2018-04-30T12:14:11.586Z,938.28
2018-04-30T12:15:11.616Z,938.30
2018-04-30T12:16:11.723Z,938.33
2018-04-30T12:17:11.669Z,938.26
2018-04-30T12:18:11.664Z,938.24
2018-04-30T12:19:11.683Z,938.25
2018-04-30T12:20:11.713Z,938.24
2018-04-30T12:21:11.829Z,938.29
2018-04-30T12:22:11.755Z,938.25
2018-04-30T12:23:11.794Z,938.31
2018-04-30T12:24:11.788Z,938.30
2018-04-30T12:25:11.837Z,938.32
2018-04-30T12:26:11.938Z,938.32
2018-04-30T12:27:11.876Z,938.31
2018-04-30T12:28:11.876Z,938.26